PRIVATE WETTERSTATION BILLIGHEIM-ALLFELD                       ZURCK
Wetterdaten: Donnerstag, 22.09.2016
Datum Zeit Temp. A. Temp. A. min Temp. A. max Feuchte A. Luftdruck Regen Wind Richtung Richtung Sonnenschein ET Solar Taupunkt Windchill Windben Empfang
22.09.2016 00:00 8,1 C 8,1 C 8,3 C 89 % 1019,9 hPa 0,0 l/m 0,0 km/h (0 Bft) N 0 0 min 0,000 mm 0 W/m 6,4 C 8,1 C 0,0 km/h (0 Bft) 89 %
22.09.2016 00:10 8,0 C 8,0 C 8,1 C 89 % 1019,9 hPa 0,0 l/m 0,0 km/h (0 Bft) N 0 0 min 0,000 mm 0 W/m 6,3 C 8,0 C 0,0 km/h (0 Bft) 97 %
22.09.2016 00:20 7,9 C 7,9 C 8,0 C 89 % 1019,9 hPa 0,0 l/m 0,0 km/h (0 Bft) N 0 0 min 0,000 mm 0 W/m 6,2 C 7,9 C 0,0 km/h (0 Bft) 97 %
22.09.2016 00:30 7,9 C 7,9 C 7,9 C 90 % 1020,1 hPa 0,0 l/m 0,0 km/h (0 Bft) N 0 0 min 0,000 mm 0 W/m 6,4 C 7,9 C 0,0 km/h (0 Bft) 98 %
22.09.2016 00:40 7,8 C 7,8 C 7,9 C 90 % 1020,2 hPa 0,0 l/m 0,0 km/h (0 Bft) N 0 0 min 0,000 mm 0 W/m 6,3 C 7,8 C 0,0 km/h (0 Bft) 97 %
22.09.2016 00:50 7,7 C 7,7 C 7,8 C 90 % 1020,2 hPa 0,0 l/m 0,0 km/h (0 Bft) N 0 0 min 0,000 mm 0 W/m 6,2 C 7,7 C 0,0 km/h (0 Bft) 98 %
22.09.2016 01:00 7,6 C 7,6 C 7,7 C 90 % 1020,3 hPa 0,0 l/m 0,0 km/h (0 Bft) N 0 0 min 0,000 mm 0 W/m 6,1 C 7,6 C 0,0 km/h (0 Bft) 97 %
22.09.2016 01:10 7,6 C 7,6 C 7,6 C 90 % 1020,2 hPa 0,0 l/m 0,0 km/h (0 Bft) N 0 0 min 0,000 mm 0 W/m 6,1 C 7,6 C 0,0 km/h (0 Bft) 98 %
22.09.2016 01:20 7,4 C 7,4 C 7,6 C 90 % 1020,2 hPa 0,0 l/m 0,0 km/h (0 Bft) N-NO 22 0 min 0,000 mm 0 W/m 5,9 C 7,4 C 3,2 km/h (1 Bft) 98 %
22.09.2016 01:30 7,3 C 7,3 C 7,4 C 90 % 1020,3 hPa 0,0 l/m 0,0 km/h (0 Bft) N-NO 22 0 min 0,000 mm 0 W/m 5,8 C 7,3 C 1,6 km/h (1 Bft) 97 %
22.09.2016 01:40 7,3 C 7,3 C 7,4 C 90 % 1020,4 hPa 0,0 l/m 0,0 km/h (0 Bft) N 0 0 min 0,000 mm 0 W/m 5,8 C 7,3 C 0,0 km/h (0 Bft) 98 %
22.09.2016 01:50 7,2 C 7,2 C 7,3 C 90 % 1020,4 hPa 0,0 l/m 0,0 km/h (0 Bft) N 0 0 min 0,000 mm 0 W/m 5,7 C 7,2 C 0,0 km/h (0 Bft) 97 %
22.09.2016 02:00 7,2 C 7,2 C 7,3 C 90 % 1020,4 hPa 0,0 l/m 0,0 km/h (0 Bft) N 0 0 min 0,000 mm 0 W/m 5,7 C 7,2 C 0,0 km/h (0 Bft) 98 %
22.09.2016 02:10 7,2 C 7,2 C 7,3 C 90 % 1020,5 hPa 0,0 l/m 0,0 km/h (0 Bft) N 0 0 min 0,000 mm 0 W/m 5,7 C 7,2 C 0,0 km/h (0 Bft) 97 %
22.09.2016 02:20 7,1 C 7,1 C 7,2 C 90 % 1020,5 hPa 0,0 l/m 0,0 km/h (0 Bft) N 0 0 min 0,000 mm 0 W/m 5,6 C 7,1 C 0,0 km/h (0 Bft) 98 %
22.09.2016 02:30 7,0 C 7,0 C 7,1 C 90 % 1020,5 hPa 0,0 l/m 0,0 km/h (0 Bft) N-NO 22 0 min 0,000 mm 0 W/m 5,5 C 7,0 C 1,6 km/h (1 Bft) 98 %
22.09.2016 02:40 6,8 C 6,8 C 7,0 C 90 % 1020,4 hPa 0,0 l/m 0,0 km/h (0 Bft) N-NO 22 0 min 0,000 mm 0 W/m 5,3 C 6,8 C 1,6 km/h (1 Bft) 97 %
22.09.2016 02:50 6,7 C 6,7 C 6,8 C 90 % 1020,5 hPa 0,0 l/m 0,0 km/h (0 Bft) N 0 0 min 0,000 mm 0 W/m 5,2 C 6,7 C 0,0 km/h (0 Bft) 98 %
22.09.2016 03:00 6,7 C 6,7 C 6,7 C 90 % 1020,4 hPa 0,0 l/m 0,0 km/h (0 Bft) N 0 0 min 0,000 mm 0 W/m 5,2 C 6,7 C 0,0 km/h (0 Bft) 98 %
22.09.2016 03:10 6,7 C 6,7 C 6,7 C 90 % 1020,5 hPa 0,0 l/m 0,0 km/h (0 Bft) N 0 0 min 0,000 mm 0 W/m 5,2 C 6,7 C 0,0 km/h (0 Bft) 100 %
22.09.2016 03:20 6,5 C 6,5 C 6,7 C 91 % 1020,5 hPa 0,0 l/m 0,0 km/h (0 Bft) N-NO 22 0 min 0,000 mm 0 W/m 5,1 C 6,5 C 1,6 km/h (1 Bft) 100 %
22.09.2016 03:30 6,4 C 6,4 C 6,5 C 90 % 1020,6 hPa 0,0 l/m 0,0 km/h (0 Bft) N 0 0 min 0,000 mm 0 W/m 4,9 C 6,4 C 0,0 km/h (0 Bft) 100 %
22.09.2016 03:40 6,4 C 6,4 C 6,4 C 90 % 1020,6 hPa 0,0 l/m 0,0 km/h (0 Bft) N 0 0 min 0,000 mm 0 W/m 4,9 C 6,4 C 0,0 km/h (0 Bft) 100 %
22.09.2016 03:50 6,3 C 6,3 C 6,4 C 91 % 1020,7 hPa 0,0 l/m 0,0 km/h (0 Bft) N 0 0 min 0,000 mm 0 W/m 4,9 C 6,3 C 0,0 km/h (0 Bft) 100 %
22.09.2016 04:00 6,3 C 6,3 C 6,3 C 91 % 1020,7 hPa 0,0 l/m 0,0 km/h (0 Bft) N 0 0 min 0,000 mm 0 W/m 4,9 C 6,3 C 0,0 km/h (0 Bft) 100 %
22.09.2016 04:10 6,2 C 6,2 C 6,3 C 91 % 1020,7 hPa 0,0 l/m 0,0 km/h (0 Bft) N 0 0 min 0,000 mm 0 W/m 4,8 C 6,2 C 0,0 km/h (0 Bft) 100 %
22.09.2016 04:20 6,1 C 6,1 C 6,2 C 91 % 1020,6 hPa 0,0 l/m 0,0 km/h (0 Bft) N 0 0 min 0,000 mm 0 W/m 4,7 C 6,1 C 0,0 km/h (0 Bft) 99 %
22.09.2016 04:30 6,1 C 6,1 C 6,2 C 91 % 1020,7 hPa 0,0 l/m 0,0 km/h (0 Bft) N-NO 22 0 min 0,000 mm 0 W/m 4,7 C 6,1 C 1,6 km/h (1 Bft) 99 %
22.09.2016 04:40 6,0 C 6,0 C 6,1 C 91 % 1020,7 hPa 0,0 l/m 0,0 km/h (0 Bft) N-NO 22 0 min 0,000 mm 0 W/m 4,6 C 6,0 C 1,6 km/h (1 Bft) 100 %
22.09.2016 04:50 5,9 C 5,9 C 6,0 C 91 % 1020,6 hPa 0,0 l/m 0,0 km/h (0 Bft) N 0 0 min 0,000 mm 0 W/m 4,5 C 5,9 C 0,0 km/h (0 Bft) 100 %
22.09.2016 05:00 6,0 C 5,9 C 6,0 C 91 % 1020,6 hPa 0,0 l/m 0,0 km/h (0 Bft) N-NO 22 0 min 0,000 mm 0 W/m 4,6 C 6,0 C 3,2 km/h (1 Bft) 100 %
22.09.2016 05:10 6,2 C 6,0 C 6,2 C 91 % 1020,6 hPa 0,0 l/m 0,0 km/h (0 Bft) N-NO 22 0 min 0,000 mm 0 W/m 4,8 C 6,2 C 1,6 km/h (1 Bft) 100 %
22.09.2016 05:20 6,3 C 6,2 C 6,3 C 91 % 1020,5 hPa 0,0 l/m 0,0 km/h (0 Bft) N-NO 22 0 min 0,000 mm 0 W/m 4,9 C 6,3 C 3,2 km/h (1 Bft) 100 %
22.09.2016 05:30 6,3 C 6,3 C 6,3 C 91 % 1020,5 hPa 0,0 l/m 0,0 km/h (0 Bft) N 0 0 min 0,000 mm 0 W/m 4,9 C 6,3 C 0,0 km/h (0 Bft) 100 %
22.09.2016 05:40 6,2 C 6,2 C 6,3 C 91 % 1020,5 hPa 0,0 l/m 0,0 km/h (0 Bft) N 0 0 min 0,000 mm 0 W/m 4,8 C 6,2 C 0,0 km/h (0 Bft) 100 %
22.09.2016 05:50 6,1 C 6,1 C 6,2 C 91 % 1020,5 hPa 0,0 l/m 0,0 km/h (0 Bft) N 0 0 min 0,000 mm 0 W/m 4,7 C 6,1 C 0,0 km/h (0 Bft) 100 %
22.09.2016 06:00 5,9 C 5,9 C 6,1 C 91 % 1020,5 hPa 0,0 l/m 0,0 km/h (0 Bft) N 0 0 min 0,000 mm 0 W/m 4,5 C 5,9 C 0,0 km/h (0 Bft) 100 %
22.09.2016 06:10 5,8 C 5,8 C 5,9 C 91 % 1020,5 hPa 0,0 l/m 0,0 km/h (0 Bft) N 0 0 min 0,000 mm 0 W/m 4,4 C 5,8 C 0,0 km/h (0 Bft) 100 %
22.09.2016 06:20 5,7 C 5,7 C 5,8 C 91 % 1020,5 hPa 0,0 l/m 0,0 km/h (0 Bft) N 0 0 min 0,000 mm 0 W/m 4,3 C 5,7 C 0,0 km/h (0 Bft) 100 %
22.09.2016 06:30 5,5 C 5,5 C 5,7 C 91 % 1020,5 hPa 0,0 l/m 0,0 km/h (0 Bft) N-NO 22 0 min 0,000 mm 0 W/m 4,2 C 5,5 C 1,6 km/h (1 Bft) 100 %
22.09.2016 06:40 5,3 C 5,3 C 5,5 C 91 % 1020,5 hPa 0,0 l/m 0,0 km/h (0 Bft) N 0 0 min 0,000 mm 0 W/m 4,0 C 5,3 C 0,0 km/h (0 Bft) 100 %
22.09.2016 06:50 5,3 C 5,3 C 5,3 C 91 % 1020,6 hPa 0,0 l/m 0,0 km/h (0 Bft) N-NO 22 0 min 0,000 mm 0 W/m 4,0 C 5,3 C 1,6 km/h (1 Bft) 100 %
22.09.2016 07:00 5,3 C 5,3 C 5,3 C 91 % 1020,7 hPa 0,0 l/m 0,0 km/h (0 Bft) N 0 0 min 0,000 mm 0 W/m 4,0 C 5,3 C 0,0 km/h (0 Bft) 100 %
22.09.2016 07:10 5,2 C 5,2 C 5,3 C 91 % 1020,9 hPa 0,0 l/m 0,0 km/h (0 Bft) N 0 0 min 0,000 mm 0 W/m 3,9 C 5,2 C 0,0 km/h (0 Bft) 100 %
22.09.2016 07:20 5,1 C 5,1 C 5,2 C 91 % 1021,0 hPa 0,0 l/m 0,0 km/h (0 Bft) N 0 0 min 0,000 mm 7 W/m 3,8 C 5,1 C 0,0 km/h (0 Bft) 100 %
22.09.2016 07:30 5,1 C 5,1 C 5,1 C 91 % 1021,2 hPa 0,0 l/m 0,0 km/h (0 Bft) N 0 0 min 0,000 mm 12 W/m 3,8 C 5,1 C 0,0 km/h (0 Bft) 100 %
22.09.2016 07:40 5,1 C 5,1 C 5,1 C 91 % 1021,2 hPa 0,0 l/m 0,0 km/h (0 Bft) N 0 0 min 0,000 mm 16 W/m 3,8 C 5,1 C 0,0 km/h (0 Bft) 100 %
22.09.2016 07:50 5,3 C 5,1 C 5,3 C 91 % 1021,3 hPa 0,0 l/m 0,0 km/h (0 Bft) N 0 0 min 0,000 mm 21 W/m 4,0 C 5,3 C 0,0 km/h (0 Bft) 100 %
22.09.2016 08:00 5,4 C 5,3 C 5,4 C 91 % 1021,3 hPa 0,0 l/m 0,0 km/h (0 Bft) N 0 0 min 0,000 mm 28 W/m 4,1 C 5,4 C 0,0 km/h (0 Bft) 100 %
22.09.2016 08:10 5,5 C 5,4 C 5,5 C 91 % 1021,4 hPa 0,0 l/m 0,0 km/h (0 Bft) N 0 0 min 0,000 mm 47 W/m 4,2 C 5,5 C 0,0 km/h (0 Bft) 100 %
22.09.2016 08:20 5,7 C 5,5 C 5,7 C 91 % 1021,4 hPa 0,0 l/m 0,0 km/h (0 Bft) N 0 0 min 0,000 mm 37 W/m 4,3 C 5,7 C 0,0 km/h (0 Bft) 100 %
22.09.2016 08:30 6,0 C 5,7 C 6,0 C 91 % 1021,4 hPa 0,0 l/m 0,0 km/h (0 Bft) N 0 0 min 0,000 mm 42 W/m 4,6 C 6,0 C 0,0 km/h (0 Bft) 92 %
22.09.2016 08:40 6,4 C 6,0 C 6,4 C 91 % 1021,5 hPa 0,0 l/m 0,0 km/h (0 Bft) N-NO 22 10 min 0,000 mm 179 W/m 5,0 C 6,4 C 1,6 km/h (1 Bft) 100 %
22.09.2016 08:50 7,4 C 6,4 C 7,4 C 91 % 1021,6 hPa 0,0 l/m 0,0 km/h (0 Bft) N-NO 22 10 min 0,000 mm 214 W/m 6,0 C 7,4 C 1,6 km/h (1 Bft) 100 %
22.09.2016 09:00 8,2 C 7,4 C 8,2 C 91 % 1021,7 hPa 0,0 l/m 0,0 km/h (0 Bft) N 0 10 min 0,051 mm 236 W/m 6,8 C 8,2 C 0,0 km/h (0 Bft) 100 %
22.09.2016 09:10 8,7 C 8,2 C 8,7 C 91 % 1021,8 hPa 0,0 l/m 0,0 km/h (0 Bft) N-NO 22 10 min 0,000 mm 264 W/m 7,3 C 8,7 C 1,6 km/h (1 Bft) 99 %
22.09.2016 09:20 9,2 C 8,7 C 9,2 C 91 % 1021,8 hPa 0,0 l/m 0,0 km/h (0 Bft) N 0 10 min 0,000 mm 285 W/m 7,8 C 9,2 C 0,0 km/h (0 Bft) 100 %
22.09.2016 09:30 9,8 C 9,2 C 9,8 C 91 % 1022,0 hPa 0,0 l/m 0,0 km/h (0 Bft) N-NO 22 10 min 0,000 mm 316 W/m 8,4 C 9,8 C 1,6 km/h (1 Bft) 100 %
22.09.2016 09:40 10,6 C 9,9 C 10,6 C 90 % 1022,1 hPa 0,0 l/m 0,0 km/h (0 Bft) N 0 10 min 0,000 mm 343 W/m 9,0 C 10,6 C 0,0 km/h (0 Bft) 100 %
22.09.2016 09:50 11,2 C 10,6 C 11,2 C 90 % 1022,0 hPa 0,0 l/m 0,0 km/h (0 Bft) N 0 10 min 0,000 mm 366 W/m 9,6 C 11,2 C 0,0 km/h (0 Bft) 100 %
22.09.2016 10:00 11,7 C 11,2 C 11,7 C 89 % 1022,0 hPa 0,0 l/m 0,0 km/h (0 Bft) N 0 10 min 0,152 mm 396 W/m 9,9 C 11,7 C 0,0 km/h (0 Bft) 100 %
22.09.2016 10:10 12,3 C 11,7 C 12,3 C 88 % 1022,2 hPa 0,0 l/m 0,0 km/h (0 Bft) N-NO 22 10 min 0,000 mm 397 W/m 10,4 C 12,3 C 1,6 km/h (1 Bft) 100 %
22.09.2016 10:20 13,1 C 12,3 C 13,1 C 85 % 1022,2 hPa 0,0 l/m 0,0 km/h (0 Bft) N 0 10 min 0,000 mm 450 W/m 10,6 C 13,1 C 0,0 km/h (0 Bft) 100 %
22.09.2016 10:30 13,9 C 13,2 C 13,9 C 82 % 1022,1 hPa 0,0 l/m 0,0 km/h (0 Bft) N-NO 22 10 min 0,000 mm 487 W/m 10,9 C 13,9 C 1,6 km/h (1 Bft) 100 %
22.09.2016 10:40 14,9 C 13,9 C 14,9 C 79 % 1022,1 hPa 0,0 l/m 0,0 km/h (0 Bft) N-NO 22 10 min 0,000 mm 503 W/m 11,3 C 14,9 C 1,6 km/h (1 Bft) 100 %
22.09.2016 10:50 15,3 C 14,9 C 15,3 C 77 % 1022,1 hPa 0,0 l/m 0,0 km/h (0 Bft) N-NO 22 10 min 0,000 mm 512 W/m 11,3 C 15,3 C 1,6 km/h (1 Bft) 100 %
22.09.2016 11:00 15,9 C 15,3 C 15,9 C 75 % 1022,1 hPa 0,0 l/m 0,0 km/h (0 Bft) N 360 10 min 0,229 mm 533 W/m 11,5 C 15,9 C 1,6 km/h (1 Bft) 100 %
22.09.2016 11:10 16,5 C 15,9 C 16,5 C 75 % 1022,0 hPa 0,0 l/m 0,0 km/h (0 Bft) N 360 10 min 0,000 mm 578 W/m 12,1 C 16,5 C 1,6 km/h (1 Bft) 100 %
22.09.2016 11:20 17,1 C 16,5 C 17,1 C 72 % 1022,0 hPa 0,0 l/m 0,0 km/h (0 Bft) N-NW 337 10 min 0,000 mm 585 W/m 12,0 C 17,1 C 4,8 km/h (1 Bft) 100 %
22.09.2016 11:30 17,7 C 17,1 C 17,7 C 70 % 1022,0 hPa 0,0 l/m 0,0 km/h (0 Bft) NW 315 10 min 0,000 mm 599 W/m 12,2 C 17,7 C 3,2 km/h (1 Bft) 100 %
22.09.2016 11:40 18,3 C 17,7 C 18,3 C 66 % 1022,0 hPa 0,0 l/m 0,0 km/h (0 Bft) W-NW 292 10 min 0,000 mm 626 W/m 11,8 C 18,3 C 8,0 km/h (2 Bft) 100 %
22.09.2016 11:50 18,7 C 18,3 C 18,7 C 65 % 1022,0 hPa 0,0 l/m 0,0 km/h (0 Bft) W-SW 247 10 min 0,000 mm 636 W/m 12,0 C 18,7 C 8,0 km/h (2 Bft) 100 %
22.09.2016 12:00 19,2 C 18,8 C 19,2 C 62 % 1021,9 hPa 0,0 l/m 1,6 km/h (1 Bft) S-SW 202 10 min 0,330 mm 640 W/m 11,7 C 19,2 C 8,0 km/h (2 Bft) 100 %
22.09.2016 12:10 19,6 C 19,2 C 19,6 C 56 % 1021,7 hPa 0,0 l/m 1,6 km/h (1 Bft) S-SW 202 10 min 0,000 mm 643 W/m 10,6 C 19,6 C 9,7 km/h (2 Bft) 100 %
22.09.2016 12:20 19,3 C 19,3 C 19,6 C 57 % 1021,7 hPa 0,0 l/m 1,6 km/h (1 Bft) SO 135 10 min 0,000 mm 661 W/m 10,6 C 19,3 C 11,3 km/h (2 Bft) 100 %
22.09.2016 12:30 19,0 C 19,0 C 19,3 C 55 % 1021,8 hPa 0,0 l/m 1,6 km/h (1 Bft) O 90 10 min 0,000 mm 671 W/m 9,8 C 19,0 C 8,0 km/h (2 Bft) 100 %
22.09.2016 12:40 19,2 C 19,0 C 19,3 C 57 % 1021,8 hPa 0,0 l/m 0,0 km/h (0 Bft) S 179 10 min 0,000 mm 670 W/m 10,5 C 19,2 C 0,0 km/h (0 Bft) 98 %
22.09.2016 12:50 19,4 C 19,2 C 19,4 C 57 % 1021,9 hPa 0,0 l/m 0,3 km/h (0 Bft) NO 38 10 min 0,000 mm 677 W/m 10,7 C 19,4 C 6,4 km/h (2 Bft) 97 %
22.09.2016 13:00 19,4 C 19,4 C 19,5 C 56 % 1021,9 hPa 0,0 l/m 3,0 km/h (1 Bft) O-SO 121 10 min 0,381 mm 671 W/m 10,4 C 19,4 C 11,3 km/h (2 Bft) 98 %
22.09.2016 13:10 19,2 C 19,1 C 19,4 C 58 % 1021,6 hPa 0,0 l/m 1,3 km/h (1 Bft) NW 323 10 min 0,000 mm 679 W/m 10,7 C 19,2 C 8,0 km/h (2 Bft) 97 %
22.09.2016 13:20 19,4 C 19,2 C 19,4 C 54 % 1021,7 hPa 0,0 l/m 4,4 km/h (1 Bft) S-SO 155 10 min 0,000 mm 679 W/m 9,8 C 19,4 C 11,3 km/h (2 Bft) 98 %
22.09.2016 13:30 19,3 C 19,2 C 19,4 C 55 % 1021,6 hPa 0,0 l/m 4,7 km/h (1 Bft) O-SO 113 10 min 0,000 mm 684 W/m 10,0 C 19,3 C 11,3 km/h (2 Bft) 97 %
22.09.2016 13:40 19,1 C 19,1 C 19,3 C 59 % 1021,5 hPa 0,0 l/m 6,0 km/h (2 Bft) SO 138 10 min 0,000 mm 684 W/m 10,9 C 19,1 C 14,5 km/h (3 Bft) 97 %
22.09.2016 13:50 19,1 C 18,9 C 19,1 C 54 % 1021,3 hPa 0,0 l/m 0,7 km/h (0 Bft) O-SO 118 10 min 0,000 mm 671 W/m 9,6 C 19,1 C 9,7 km/h (2 Bft) 98 %
22.09.2016 14:00 19,5 C 19,1 C 19,5 C 56 % 1021,2 hPa 0,0 l/m 0,0 km/h (0 Bft) N-NW 339 10 min 0,406 mm 664 W/m 10,5 C 19,5 C 1,6 km/h (1 Bft) 97 %
22.09.2016 14:10 19,8 C 19,5 C 19,8 C 53 % 1021,0 hPa 0,0 l/m 2,5 km/h (1 Bft) S-SW 196 10 min 0,000 mm 645 W/m 9,9 C 19,8 C 9,7 km/h (2 Bft) 98 %
22.09.2016 14:20 20,0 C 19,8 C 20,0 C 55 % 1020,9 hPa 0,0 l/m 1,8 km/h (1 Bft) O 86 10 min 0,000 mm 214 W/m 10,7 C 20,0 C 11,3 km/h (2 Bft) 96 %
22.09.2016 14:30 20,2 C 20,0 C 20,2 C 52 % 1020,9 hPa 0,0 l/m 1,8 km/h (1 Bft) S-SO 150 10 min 0,000 mm 631 W/m 10,0 C 20,2 C 9,7 km/h (2 Bft) 98 %
22.09.2016 14:40 20,1 C 20,1 C 20,2 C 53 % 1020,6 hPa 0,0 l/m 5,3 km/h (1 Bft) SO 130 10 min 0,000 mm 622 W/m 10,2 C 20,1 C 17,7 km/h (3 Bft) 97 %
22.09.2016 14:50 20,1 C 20,0 C 20,1 C 52 % 1020,7 hPa 0,0 l/m 3,9 km/h (1 Bft) S-SO 155 10 min 0,000 mm 624 W/m 9,9 C 20,1 C 19,3 km/h (3 Bft) 98 %
22.09.2016 15:00 20,4 C 20,1 C 20,4 C 51 % 1020,6 hPa 0,0 l/m 1,8 km/h (1 Bft) S-SO 164 10 min 0,381 mm 649 W/m 9,9 C 20,4 C 11,3 km/h (2 Bft) 97 %
22.09.2016 15:10 20,7 C 20,4 C 20,7 C 52 % 1020,5 hPa 0,0 l/m 1,1 km/h (1 Bft) N 5 10 min 0,000 mm 255 W/m 10,5 C 20,7 C 11,3 km/h (2 Bft) 97 %
22.09.2016 15:20 20,7 C 20,7 C 20,7 C 54 % 1020,5 hPa 0,0 l/m 0,9 km/h (0 Bft) O-SO 105 10 min 0,000 mm 503 W/m 11,1 C 20,7 C 8,0 km/h (2 Bft) 98 %
22.09.2016 15:30 20,4 C 20,4 C 20,7 C 53 % 1020,6 hPa 0,0 l/m 1,8 km/h (1 Bft) SO 138 10 min 0,000 mm 439 W/m 10,5 C 20,4 C 11,3 km/h (2 Bft) 97 %
22.09.2016 15:40 20,1 C 20,1 C 20,4 C 51 % 1020,4 hPa 0,0 l/m 4,4 km/h (1 Bft) S-SO 162 0 min 0,000 mm 134 W/m 9,6 C 20,1 C 16,1 km/h (3 Bft) 98 %
22.09.2016 15:50 19,8 C 19,8 C 20,1 C 53 % 1020,3 hPa 0,0 l/m 4,0 km/h (1 Bft) SO 146 0 min 0,000 mm 83 W/m 9,9 C 19,8 C 16,1 km/h (3 Bft) 97 %
22.09.2016 16:00 19,9 C 19,8 C 19,9 C 52 % 1020,4 hPa 0,0 l/m 1,4 km/h (1 Bft) O-SO 104 0 min 0,204 mm 95 W/m 9,7 C 19,9 C 6,4 km/h (2 Bft) 98 %
22.09.2016 16:10 19,9 C 19,9 C 19,9 C 54 % 1020,3 hPa 0,0 l/m 1,7 km/h (1 Bft) N-NO 24 0 min 0,000 mm 113 W/m 10,3 C 19,9 C 9,7 km/h (2 Bft) 97 %
22.09.2016 16:20 20,1 C 19,9 C 20,1 C 55 % 1020,3 hPa 0,0 l/m 1,2 km/h (1 Bft) NO 34 0 min 0,000 mm 84 W/m 10,8 C 20,1 C 9,7 km/h (2 Bft) 97 %
22.09.2016 16:30 20,2 C 20,1 C 20,2 C 53 % 1020,3 hPa 0,0 l/m 0,8 km/h (0 Bft) SO 138 0 min 0,000 mm 74 W/m 10,3 C 20,2 C 11,3 km/h (2 Bft) 98 %
22.09.2016 16:40 19,9 C 19,9 C 20,2 C 51 % 1020,3 hPa 0,0 l/m 0,3 km/h (0 Bft) SO 146 0 min 0,000 mm 67 W/m 9,5 C 19,9 C 8,0 km/h (2 Bft) 97 %
22.09.2016 16:50 19,7 C 19,7 C 19,9 C 52 % 1020,1 hPa 0,0 l/m 1,0 km/h (0 Bft) SO 126 0 min 0,000 mm 62 W/m 9,6 C 19,7 C 9,7 km/h (2 Bft) 98 %
22.09.2016 17:00 19,4 C 19,4 C 19,7 C 51 % 1020,2 hPa 0,0 l/m 0,5 km/h (0 Bft) O-SO 115 0 min 0,050 mm 72 W/m 9,0 C 19,4 C 4,8 km/h (1 Bft) 97 %
22.09.2016 17:10 19,3 C 19,3 C 19,4 C 54 % 1020,1 hPa 0,0 l/m 0,0 km/h (0 Bft) O-SO 115 0 min 0,000 mm 81 W/m 9,8 C 19,3 C 0,0 km/h (0 Bft) 97 %
22.09.2016 17:20 19,3 C 19,3 C 19,3 C 57 % 1020,1 hPa 0,0 l/m 0,0 km/h (0 Bft) O-SO 120 0 min 0,000 mm 84 W/m 10,6 C 19,3 C 1,6 km/h (1 Bft) 98 %
22.09.2016 17:30 19,1 C 19,1 C 19,3 C 57 % 1020,1 hPa 0,0 l/m 0,0 km/h (0 Bft) O-SO 120 0 min 0,000 mm 97 W/m 10,4 C 19,1 C 1,6 km/h (1 Bft) 97 %
22.09.2016 17:40 19,1 C 19,1 C 19,1 C 56 % 1020,2 hPa 0,0 l/m 0,0 km/h (0 Bft) O-SO 120 0 min 0,000 mm 100 W/m 10,1 C 19,1 C 0,0 km/h (0 Bft) 99 %
22.09.2016 17:50 19,0 C 18,9 C 19,1 C 58 % 1020,3 hPa 0,0 l/m 0,0 km/h (0 Bft) O-SO 119 0 min 0,000 mm 90 W/m 10,5 C 19,0 C 0,0 km/h (0 Bft) 98 %
22.09.2016 18:00 18,8 C 18,8 C 19,0 C 60 % 1020,4 hPa 0,0 l/m 0,0 km/h (0 Bft) O-SO 119 0 min 0,051 mm 69 W/m 10,9 C 18,8 C 0,0 km/h (0 Bft) 97 %
22.09.2016 18:10 18,4 C 18,4 C 18,8 C 61 % 1020,3 hPa 0,0 l/m 0,0 km/h (0 Bft) O-SO 119 0 min 0,000 mm 54 W/m 10,7 C 18,4 C 0,0 km/h (0 Bft) 97 %
22.09.2016 18:20 18,1 C 18,1 C 18,4 C 61 % 1020,3 hPa 0,0 l/m 0,0 km/h (0 Bft) O-SO 119 0 min 0,000 mm 46 W/m 10,5 C 18,1 C 0,0 km/h (0 Bft) 97 %
22.09.2016 18:30 17,7 C 17,7 C 18,1 C 60 % 1020,3 hPa 0,0 l/m 0,0 km/h (0 Bft) O-SO 119 0 min 0,000 mm 39 W/m 9,8 C 17,7 C 0,0 km/h (0 Bft) 97 %
22.09.2016 18:40 17,4 C 17,4 C 17,7 C 60 % 1020,4 hPa 0,0 l/m 0,0 km/h (0 Bft) O-SO 119 0 min 0,000 mm 30 W/m 9,6 C 17,4 C 0,0 km/h (0 Bft) 97 %
22.09.2016 18:50 17,2 C 17,2 C 17,4 C 60 % 1020,4 hPa 0,0 l/m 0,0 km/h (0 Bft) O-SO 119 0 min 0,000 mm 21 W/m 9,4 C 17,2 C 0,0 km/h (0 Bft) 98 %
22.09.2016 19:00 16,9 C 16,9 C 17,2 C 61 % 1020,5 hPa 0,0 l/m 0,0 km/h (0 Bft) O-SO 119 0 min 0,026 mm 12 W/m 9,3 C 16,9 C 0,0 km/h (0 Bft) 97 %
22.09.2016 19:10 16,6 C 16,6 C 16,9 C 64 % 1020,6 hPa 0,0 l/m 0,0 km/h (0 Bft) O-SO 119 0 min 0,000 mm 5 W/m 9,8 C 16,6 C 0,0 km/h (0 Bft) 98 %
22.09.2016 19:20 16,1 C 16,1 C 16,6 C 65 % 1020,5 hPa 0,0 l/m 0,0 km/h (0 Bft) O-SO 119 0 min 0,000 mm 0 W/m 9,5 C 16,1 C 0,0 km/h (0 Bft) 97 %
22.09.2016 19:30 15,7 C 15,7 C 16,1 C 63 % 1020,4 hPa 0,0 l/m 0,0 km/h (0 Bft) O-SO 118 0 min 0,000 mm 0 W/m 8,7 C 15,7 C 1,6 km/h (1 Bft) 97 %
22.09.2016 19:40 15,3 C 15,3 C 15,7 C 66 % 1020,4 hPa 0,0 l/m 0,0 km/h (0 Bft) O-SO 118 0 min 0,000 mm 0 W/m 9,0 C 15,3 C 0,0 km/h (0 Bft) 97 %
22.09.2016 19:50 15,1 C 15,1 C 15,3 C 71 % 1020,6 hPa 0,0 l/m 0,0 km/h (0 Bft) O-SO 118 0 min 0,000 mm 0 W/m 9,9 C 15,1 C 0,0 km/h (0 Bft) 97 %
22.09.2016 20:00 14,6 C 14,6 C 15,1 C 72 % 1020,6 hPa 0,0 l/m 0,0 km/h (0 Bft) O-SO 118 0 min 0,000 mm 0 W/m 9,6 C 14,6 C 0,0 km/h (0 Bft) 98 %
22.09.2016 20:10 14,3 C 14,3 C 14,6 C 75 % 1020,7 hPa 0,0 l/m 0,0 km/h (0 Bft) O-SO 118 0 min 0,000 mm 0 W/m 9,9 C 14,3 C 0,0 km/h (0 Bft) 97 %
22.09.2016 20:20 14,0 C 14,0 C 14,3 C 76 % 1020,6 hPa 0,0 l/m 0,0 km/h (0 Bft) O-SO 118 0 min 0,000 mm 0 W/m 9,8 C 14,0 C 0,0 km/h (0 Bft) 97 %
22.09.2016 20:30 13,8 C 13,8 C 14,0 C 77 % 1020,8 hPa 0,0 l/m 1,3 km/h (1 Bft) O-SO 118 0 min 0,000 mm 0 W/m 9,8 C 13,8 C 3,2 km/h (1 Bft) 98 %
22.09.2016 20:40 13,5 C 13,5 C 13,8 C 78 % 1020,8 hPa 0,0 l/m 0,0 km/h (0 Bft) O-SO 115 0 min 0,000 mm 0 W/m 9,7 C 13,5 C 1,6 km/h (1 Bft) 97 %
22.09.2016 20:50 13,3 C 13,3 C 13,5 C 79 % 1020,8 hPa 0,0 l/m 0,0 km/h (0 Bft) O-SO 115 0 min 0,000 mm 0 W/m 9,7 C 13,3 C 0,0 km/h (0 Bft) 98 %
22.09.2016 21:00 13,1 C 13,1 C 13,3 C 80 % 1020,7 hPa 0,0 l/m 0,0 km/h (0 Bft) O-SO 115 0 min 0,025 mm 0 W/m 9,7 C 13,1 C 1,6 km/h (1 Bft) 97 %
22.09.2016 21:10 12,9 C 12,9 C 13,1 C 80 % 1020,7 hPa 0,0 l/m 0,0 km/h (0 Bft) O-SO 112 0 min 0,000 mm 0 W/m 9,5 C 12,9 C 3,2 km/h (1 Bft) 100 %
22.09.2016 21:20 12,7 C 12,7 C 12,9 C 81 % 1020,8 hPa 0,0 l/m 0,0 km/h (0 Bft) O-SO 112 0 min 0,000 mm 0 W/m 9,5 C 12,7 C 1,6 km/h (1 Bft) 99 %
22.09.2016 21:30 12,4 C 12,4 C 12,7 C 83 % 1020,8 hPa 0,0 l/m 0,0 km/h (0 Bft) O 90 0 min 0,000 mm 0 W/m 9,6 C 12,4 C 3,2 km/h (1 Bft) 100 %
22.09.2016 21:40 12,2 C 12,2 C 12,4 C 84 % 1020,7 hPa 0,0 l/m 1,6 km/h (1 Bft) O 90 0 min 0,000 mm 0 W/m 9,6 C 12,2 C 4,8 km/h (1 Bft) 100 %
22.09.2016 21:50 12,1 C 12,0 C 12,2 C 85 % 1020,8 hPa 0,0 l/m 0,0 km/h (0 Bft) O-NO 67 0 min 0,000 mm 0 W/m 9,7 C 12,1 C 1,6 km/h (1 Bft) 100 %
22.09.2016 22:00 11,9 C 11,9 C 12,0 C 85 % 1020,9 hPa 0,0 l/m 0,0 km/h (0 Bft) O-NO 67 0 min 0,025 mm 0 W/m 9,5 C 11,9 C 4,8 km/h (1 Bft) 100 %
22.09.2016 22:10 11,7 C 11,7 C 11,9 C 86 % 1021,1 hPa 0,0 l/m 0,0 km/h (0 Bft) N 0 0 min 0,000 mm 0 W/m 9,4 C 11,7 C 0,0 km/h (0 Bft) 100 %
22.09.2016 22:20 11,5 C 11,5 C 11,7 C 86 % 1021,1 hPa 0,0 l/m 0,0 km/h (0 Bft) O-NO 67 0 min 0,000 mm 0 W/m 9,2 C 11,5 C 1,6 km/h (1 Bft) 100 %
22.09.2016 22:30 11,4 C 11,4 C 11,5 C 86 % 1021,1 hPa 0,0 l/m 0,0 km/h (0 Bft) O-NO 67 0 min 0,000 mm 0 W/m 9,1 C 11,4 C 1,6 km/h (1 Bft) 100 %
22.09.2016 22:40 11,5 C 11,4 C 11,5 C 85 % 1021,1 hPa 0,0 l/m 0,0 km/h (0 Bft) N 0 0 min 0,000 mm 0 W/m 9,1 C 11,5 C 0,0 km/h (0 Bft) 100 %
22.09.2016 22:50 11,4 C 11,4 C 11,6 C 85 % 1021,1 hPa 0,0 l/m 0,0 km/h (0 Bft) N 0 0 min 0,000 mm 0 W/m 9,0 C 11,4 C 0,0 km/h (0 Bft) 100 %
22.09.2016 23:00 11,3 C 11,3 C 11,5 C 86 % 1021,2 hPa 0,0 l/m 0,0 km/h (0 Bft) O-NO 67 0 min 0,000 mm 0 W/m 9,0 C 11,3 C 4,8 km/h (1 Bft) 100 %
22.09.2016 23:10 11,1 C 11,1 C 11,3 C 87 % 1021,3 hPa 0,0 l/m 0,0 km/h (0 Bft) N 0 0 min 0,000 mm 0 W/m 9,0 C 11,1 C 0,0 km/h (0 Bft) 100 %
22.09.2016 23:20 10,9 C 10,9 C 11,1 C 87 % 1021,3 hPa 0,0 l/m 0,0 km/h (0 Bft) O-NO 67 0 min 0,000 mm 0 W/m 8,8 C 10,9 C 1,6 km/h (1 Bft) 100 %
22.09.2016 23:30 10,9 C 10,9 C 10,9 C 87 % 1021,3 hPa 0,0 l/m 0,0 km/h (0 Bft) O-NO 67 0 min 0,000 mm 0 W/m 8,8 C 10,9 C 3,2 km/h (1 Bft) 100 %
22.09.2016 23:40 10,8 C 10,8 C 10,9 C 88 % 1021,3 hPa 0,0 l/m 0,0 km/h (0 Bft) N 0 0 min 0,000 mm 0 W/m 8,9 C 10,8 C 0,0 km/h (0 Bft) 100 %
22.09.2016 23:50 10,7 C 10,7 C 10,8 C 88 % 1021,3 hPa 0,0 l/m 0,0 km/h (0 Bft) O-NO 67 0 min 0,000 mm 0 W/m 8,8 C 10,7 C 3,2 km/h (1 Bft) 100 %
_ Min-Zeit 07:20 07:20 07:30 15:00 00:00 - 00:00 - - - - - 07:20 07:20 00:00 00:00
Minimum _ 5,1 C 5,1 C 5,1 C 51 % 1019,9 hPa - 0,0 km/h (0 Bft) - - - - - 3,8 C 5,1 C 0,0 km/h (0 Bft) 89 %
_ Max-Zeit 15:10 15:20 15:10 03:20 10:10 00:00 13:40 - - 08:40 14:00 13:30 11:30 15:10 14:50 03:10
Maximum _ 20,7 C 20,7 C 20,7 C 91 % 1022,2 hPa 0,0 l/m 6,0 km/h
SO (2 Bft)
- - 10 min 0,406 mm 684 W/m 12,2 C 20,7 C 19,3 km/h
S-SO (3 Bft)
100 %
Durchschnitt _ 12,5 C 12,3 C 12,6 C 77 % 1020,9 hPa #0,0 l/m 0,5 km/h (0 Bft) SO - #7:00 h #2,311 mm 326 W/m 8,1 C 12,5 C 2,9 km/h (1 Bft) 99 %
PRIVATE WETTERSTATION BILLIGHEIM-ALLFELD - www.neckar-odenwald-wetter.de - Holger Sonntag